Time;durP1;ratioP1;P1;durP2;ratioP2;P2;SDS_P1;SDS_P2;PMS_P1;PMS_P2;Temp;Humidity;BMP_temperature;BMP_pressure;BME280_temperature;BME280_humidity;BME280_pressure;Samples;Min_cycle;Max_cycle;Signal;HPM_P1;HPM_P2
2022/03/05 00:00:45;;;;;;;24.00;16.90;;;;;;;5.46;44.43;94296.84;5062900;28;20172;-75
2022/03/05 00:03:12;;;;;;;23.90;16.53;;;;;;;5.67;43.83;94291.88;5064523;28;20190;-75
2022/03/05 00:05:38;;;;;;;29.70;18.00;;;;;;;5.68;43.92;94295.28;5056917;28;20182;-74
2022/03/05 00:08:04;;;;;;;28.33;18.53;;;;;;;5.51;44.14;94294.56;5060732;28;20888;-75
2022/03/05 00:10:30;;;;;;;28.67;19.20;;;;;;;5.73;43.62;94292.13;5063660;28;20493;-75
2022/03/05 00:12:56;;;;;;;6.63;5.03;;;;;;;5.49;41.84;94296.53;5061602;28;20409;-74
2022/03/05 00:15:24;;;;;;;23.77;17.20;;;;;;;5.33;42.80;94292.25;5059952;28;20406;-74
2022/03/05 00:17:50;;;;;;;22.87;16.90;;;;;;;6.05;42.13;94285.91;5057762;28;20417;-74
2022/03/05 00:20:16;;;;;;;19.53;13.80;;;;;;;5.85;41.99;94283.78;5058521;28;20475;-74
2022/03/05 00:22:42;;;;;;;22.60;15.87;;;;;;;5.80;42.10;94291.28;5061636;28;20458;-74
2022/03/05 00:25:10;;;;;;;26.53;19.13;;;;;;;5.35;43.65;94302.44;5058933;28;20428;-75
2022/03/05 00:27:35;;;;;;;22.63;17.80;;;;;;;5.14;44.29;94303.03;5063149;28;20417;-74
2022/03/05 00:30:01;;;;;;;24.20;17.20;;;;;;;5.59;42.94;94291.91;5060406;28;20950;-73
2022/03/05 00:32:27;;;;;;;34.20;22.70;;;;;;;5.38;43.92;94294.31;5057084;28;20530;-74
2022/03/05 00:34:52;;;;;;;29.27;19.57;;;;;;;5.47;43.42;94304.47;5059984;28;20175;-74
2022/03/05 00:37:18;;;;;;;24.00;14.97;;;;;;;5.20;43.22;94287.59;5058846;28;20831;-74
2022/03/05 00:39:43;;;;;;;25.17;17.47;;;;;;;5.32;44.30;94297.59;5063639;28;20209;-74
2022/03/05 00:42:09;;;;;;;23.47;17.40;;;;;;;5.20;44.74;94303.16;5059045;28;20202;-74
2022/03/05 00:44:35;;;;;;;29.70;18.90;;;;;;;5.40;44.39;94302.75;5060799;28;20183;-75
2022/03/05 00:47:00;;;;;;;31.47;23.10;;;;;;;5.37;44.79;94297.88;5064470;28;20432;-75
2022/03/05 00:49:26;;;;;;;30.53;20.10;;;;;;;5.21;45.26;94289.22;5062828;28;20179;-75
2022/03/05 00:51:52;;;;;;;30.60;18.90;;;;;;;5.51;44.88;94288.56;5058391;28;20179;-74
2022/03/05 00:54:19;;;;;;;31.87;21.07;;;;;;;5.19;45.66;94285.97;5060673;28;20217;-74
2022/03/05 00:56:44;;;;;;;30.60;21.40;;;;;;;5.36;45.01;94285.91;5056769;28;20493;-74
2022/03/05 00:59:09;;;;;;;27.57;19.57;;;;;;;5.41;45.14;94294.00;5059934;28;20418;-75
2022/03/05 01:01:35;;;;;;;20.30;15.40;;;;;;;5.81;44.76;94279.13;5055234;28;20179;-75
2022/03/05 01:04:01;;;;;;;25.33;18.27;;;;;;;5.79;44.07;94286.28;5056664;28;20187;-74
2022/03/05 01:06:27;;;;;;;24.13;16.33;;;;;;;5.53;44.44;94278.81;5053046;28;20175;-74
2022/03/05 01:08:53;;;;;;;17.87;13.53;;;;;;;4.79;45.97;94277.41;5064152;28;20170;-74
2022/03/05 01:11:19;;;;;;;20.00;15.00;;;;;;;4.54;47.12;94281.06;5061368;28;20465;-74
2022/03/05 01:13:45;;;;;;;36.53;21.20;;;;;;;4.79;46.85;94274.81;5063350;28;20174;-74
2022/03/05 01:16:11;;;;;;;28.50;21.00;;;;;;;5.05;46.68;94269.38;5058818;28;20170;-75
2022/03/05 01:18:37;;;;;;;37.07;22.63;;;;;;;5.45;45.74;94271.91;5064432;28;20425;-75
2022/03/05 01:21:03;;;;;;;26.77;19.70;;;;;;;5.12;46.12;94269.47;5061039;28;20432;-75
2022/03/05 01:23:28;;;;;;;26.93;19.83;;;;;;;5.04;46.90;94272.13;5064027;28;20198;-75
2022/03/05 01:25:54;;;;;;;18.60;13.60;;;;;;;5.21;45.62;94270.25;5062912;28;20463;-75
2022/03/05 01:28:19;;;;;;;28.73;18.30;;;;;;;5.03;46.61;94271.31;5063302;28;20669;-75
2022/03/05 01:30:45;;;;;;;23.00;18.17;;;;;;;5.28;45.46;94274.59;5063018;28;20202;-75
2022/03/05 01:33:15;;;;;;;31.67;19.20;;;;;;;5.30;45.43;94276.22;5061505;28;20175;-75
2022/03/05 01:35:41;;;;;;;29.03;17.70;;;;;;;5.42;45.76;94269.66;5053465;28;20177;-75
2022/03/05 01:38:06;;;;;;;21.87;17.30;;;;;;;5.18;46.03;94273.19;5058159;28;20441;-75
2022/03/05 01:40:32;;;;;;;23.80;18.07;;;;;;;5.09;46.73;94272.44;5061415;28;20433;-75
2022/03/05 01:42:58;;;;;;;29.73;20.23;;;;;;;5.34;46.18;94273.09;5058131;28;20190;-75
2022/03/05 01:45:23;;;;;;;28.20;19.30;;;;;;;5.43;45.95;94271.28;5063626;28;20177;-75
2022/03/05 01:47:48;;;;;;;25.47;18.77;;;;;;;5.46;45.97;94271.75;5064990;28;20186;-75
2022/03/05 01:50:14;;;;;;;27.93;19.10;;;;;;;5.57;45.51;94272.31;5062494;28;20183;-76
2022/03/05 01:52:39;;;;;;;25.60;19.23;;;;;;;5.60;46.19;94266.78;5062441;28;20198;-75
2022/03/05 01:55:05;;;;;;;26.90;20.87;;;;;;;5.46;46.10;94261.34;5066308;28;20170;-75
2022/03/05 01:57:31;;;;;;;26.13;20.50;;;;;;;5.69;45.38;94268.31;5064468;28;20240;-75
2022/03/05 01:59:58;;;;;;;25.33;19.67;;;;;;;6.00;44.70;94263.09;5059890;28;20428;-75
2022/03/05 02:02:23;;;;;;;28.73;21.10;;;;;;;6.38;43.59;94264.88;5065212;28;20191;-74
2022/03/05 02:04:49;;;;;;;22.03;17.43;;;;;;;5.85;44.51;94259.63;5062570;28;20484;-75
2022/03/05 02:07:14;;;;;;;28.07;18.97;;;;;;;6.07;44.63;94268.41;5065528;28;20174;-75
2022/03/05 02:09:40;;;;;;;27.60;21.63;;;;;;;5.96;44.75;94261.03;5058312;28;20182;-75
2022/03/05 02:12:06;;;;;;;26.00;18.67;;;;;;;5.93;45.12;94261.34;5065075;28;20234;-75
2022/03/05 02:14:31;;;;;;;26.70;20.00;;;;;;;6.20;44.78;94257.38;5064996;28;20170;-75
2022/03/05 02:16:57;;;;;;;27.20;19.97;;;;;;;6.25;44.25;94260.28;5065197;28;20439;-75
2022/03/05 02:19:22;;;;;;;26.40;19.70;;;;;;;6.35;43.90;94258.22;5064802;28;20181;-75
2022/03/05 02:21:48;;;;;;;28.63;21.87;;;;;;;5.93;45.35;94251.75;5048984;28;20210;-75
2022/03/05 02:24:15;;;;;;;26.77;20.60;;;;;;;5.87;45.61;94258.44;5057271;28;20186;-75
2022/03/05 02:26:40;;;;;;;28.07;20.57;;;;;;;6.05;44.83;94260.78;5068066;28;20186;-75
2022/03/05 02:29:06;;;;;;;25.63;19.17;;;;;;;6.02;45.56;94258.53;5067744;28;20864;-76
2022/03/05 02:31:31;;;;;;;24.13;20.83;;;;;;;6.15;45.17;94262.31;5064968;28;20171;-76
2022/03/05 02:33:58;;;;;;;26.97;19.50;;;;;;;6.25;45.30;94260.28;5068023;28;20179;-75
2022/03/05 02:36:25;;;;;;;32.60;22.30;;;;;;;6.26;45.17;94256.69;5054123;28;20211;-76
2022/03/05 02:38:51;;;;;;;30.70;20.77;;;;;;;6.28;44.79;94265.13;5068232;28;20497;-75
2022/03/05 02:41:18;;;;;;;21.67;18.63;;;;;;;6.44;45.05;94261.53;5061942;28;20458;-75
2022/03/05 02:43:45;;;;;;;26.87;20.23;;;;;;;6.35;44.41;94267.81;5064311;28;20353;-75
2022/03/05 02:46:10;;;;;;;30.03;22.40;;;;;;;6.39;44.79;94263.84;5067665;28;20847;-76
2022/03/05 02:48:36;;;;;;;27.57;19.80;;;;;;;6.38;44.40;94263.06;5067478;28;20487;-75
2022/03/05 02:51:02;;;;;;;27.67;20.37;;;;;;;6.36;44.94;94265.03;5057377;28;20692;-76
2022/03/05 02:53:29;;;;;;;27.10;20.80;;;;;;;6.43;45.08;94265.13;5064670;28;20171;-75
2022/03/05 02:55:55;;;;;;;29.80;20.87;;;;;;;6.44;44.96;94264.94;5067086;28;20429;-75
2022/03/05 02:58:20;;;;;;;28.23;19.93;;;;;;;6.48;45.04;94262.00;5067328;28;20428;-75
2022/03/05 03:00:46;;;;;;;25.10;20.70;;;;;;;6.43;44.85;94267.72;5059906;28;20259;-75
2022/03/05 03:03:11;;;;;;;27.77;20.93;;;;;;;6.43;45.16;94262.50;5063423;28;20191;-76
2022/03/05 03:05:37;;;;;;;44.33;22.93;;;;;;;6.42;45.75;94258.31;5067136;28;20848;-75
2022/03/05 03:08:02;;;;;;;38.63;23.00;;;;;;;6.41;45.35;94259.28;5065818;28;20179;-74
2022/03/05 03:10:28;;;;;;;30.63;21.40;;;;;;;6.34;45.96;94264.41;5063686;28;20206;-75
2022/03/05 03:12:54;;;;;;;31.83;23.60;;;;;;;6.41;45.50;94265.31;5047465;28;20179;-75
2022/03/05 03:15:19;;;;;;;28.67;22.67;;;;;;;6.58;45.74;94270.31;5066444;28;20179;-75
2022/03/05 03:17:47;;;;;;;30.83;22.13;;;;;;;6.50;45.70;94271.22;5055400;28;20577;-75
2022/03/05 03:20:19;;;;;;;33.10;25.80;;;;;;;6.28;46.21;94272.91;5054921;28;20234;-75
2022/03/05 03:22:45;;;;;;;31.30;23.10;;;;;;;6.36;46.16;94269.44;5050239;28;20453;-74
2022/03/05 03:25:10;;;;;;;30.50;23.27;;;;;;;6.38;46.13;94264.88;5058217;28;20482;-75
2022/03/05 03:27:36;;;;;;;27.83;21.40;;;;;;;6.38;46.53;94257.88;5057927;28;20453;-75
2022/03/05 03:30:03;;;;;;;29.80;20.10;;;;;;;6.39;46.36;94262.09;5066884;28;20178;-75
2022/03/05 03:32:29;;;;;;;31.00;23.60;;;;;;;6.37;46.03;94269.22;5066979;28;20167;-75
2022/03/05 03:34:54;;;;;;;30.17;22.00;;;;;;;5.93;45.92;94259.53;5050531;28;20486;-75
2022/03/05 03:37:19;;;;;;;27.50;20.37;;;;;;;6.13;46.07;94266.84;5054623;28;20186;-74
2022/03/05 03:39:45;;;;;;;24.83;20.87;;;;;;;6.08;45.15;94269.19;5064811;28;20199;-74
2022/03/05 03:42:10;;;;;;;30.40;19.80;;;;;;;6.05;45.07;94271.16;5054431;28;20194;-75
2022/03/05 03:44:36;;;;;;;29.87;19.53;;;;;;;6.23;44.68;94272.63;5050857;28;20175;-75
2022/03/05 03:47:02;;;;;;;22.13;18.00;;;;;;;6.08;45.27;94271.78;5043661;28;20235;-75
2022/03/05 03:49:28;;;;;;;25.03;19.20;;;;;;;6.06;45.21;94267.56;5065436;28;20178;-75
2022/03/05 03:51:53;;;;;;;28.10;20.03;;;;;;;6.04;45.63;94269.53;5066474;28;20449;-75
2022/03/05 03:54:19;;;;;;;23.43;19.70;;;;;;;6.13;44.82;94277.25;5066206;28;20203;-74
2022/03/05 03:56:44;;;;;;;25.60;20.20;;;;;;;6.12;44.73;94270.47;5062178;28;20233;-75
2022/03/05 03:59:10;;;;;;;28.10;20.17;;;;;;;6.13;44.96;94272.88;5056889;28;20181;-75
2022/03/05 04:01:35;;;;;;;29.87;21.17;;;;;;;5.80;46.18;94282.69;5059272;28;20179;-75
2022/03/05 04:04:01;;;;;;;32.40;21.60;;;;;;;5.84;46.56;94283.94;5063291;28;20204;-75
2022/03/05 04:08:41;;;;;;;24.87;20.10;;;;;;;6.14;45.67;94278.88;5060476;28;20179;-74
2022/03/05 04:09:12;;;;;;;34.30;21.73;;;;;;;6.14;45.39;94282.28;5066146;28;20181;-74
2022/03/05 04:11:37;;;;;;;25.47;19.67;;;;;;;6.10;45.65;94282.81;5051047;28;20465;-74
2022/03/05 04:14:03;;;;;;;28.33;22.37;;;;;;;5.63;46.75;94285.41;5059048;28;20179;-75
2022/03/05 04:16:28;;;;;;;35.77;20.37;;;;;;;5.61;47.19;94286.56;5060739;28;20166;-75
2022/03/05 04:18:53;;;;;;;32.03;19.67;;;;;;;5.57;47.18;94285.28;5056793;28;20191;-75
2022/03/05 04:21:19;;;;;;;28.40;22.40;;;;;;;5.53;47.46;94297.00;5056035;28;20182;-75
2022/03/05 04:23:45;;;;;;;29.40;21.00;;;;;;;5.50;47.54;94292.13;5052314;28;20191;-75
2022/03/05 04:26:10;;;;;;;28.40;22.50;;;;;;;5.45;47.22;94295.25;5056535;28;20189;-75
2022/03/05 04:28:35;;;;;;;31.27;21.87;;;;;;;5.50;47.24;94292.13;5065478;28;20179;-75
2022/03/05 04:31:01;;;;;;;27.97;23.23;;;;;;;5.47;47.23;94299.28;5064610;28;20573;-75
2022/03/05 04:33:26;;;;;;;39.57;22.60;;;;;;;5.64;46.82;94300.00;5058229;28;20263;-75
2022/03/05 04:35:52;;;;;;;33.00;22.77;;;;;;;5.45;47.52;94303.03;5058770;28;20179;-75
2022/03/05 04:38:17;;;;;;;39.70;23.37;;;;;;;4.91;49.27;94298.56;5057487;28;20182;-75
2022/03/05 04:40:43;;;;;;;41.73;23.47;;;;;;;5.01;49.32;94298.41;5055972;28;20179;-75
2022/03/05 04:43:08;;;;;;;33.97;23.30;;;;;;;5.70;48.05;94292.50;5054200;28;20202;-75
2022/03/05 04:45:34;;;;;;;34.70;24.37;;;;;;;5.62;48.86;94291.56;5062291;28;20244;-75
2022/03/05 04:47:59;;;;;;;41.37;26.90;;;;;;;5.23;49.52;94292.44;5060285;28;20226;-75
2022/03/05 04:50:25;;;;;;;35.47;23.57;;;;;;;5.11;49.81;94293.81;5062426;28;20174;-75
2022/03/05 04:52:50;;;;;;;34.97;25.37;;;;;;;5.08;49.61;94300.16;5065378;28;20178;-75
2022/03/05 04:55:15;;;;;;;39.80;24.80;;;;;;;5.04;49.94;94295.47;5050175;28;20182;-75
2022/03/05 04:57:41;;;;;;;41.40;26.50;;;;;;;5.07;50.29;94298.53;5063960;28;20175;-75
2022/03/05 05:00:08;;;;;;;38.23;28.80;;;;;;;5.13;49.88;94298.84;5063892;28;20175;-75
2022/03/05 05:02:34;;;;;;;39.93;27.57;;;;;;;5.15;50.34;94304.66;5054363;28;20194;-75
2022/03/05 05:04:59;;;;;;;39.40;27.20;;;;;;;5.27;49.85;94304.13;5064120;28;20428;-75
2022/03/05 05:07:25;;;;;;;39.73;29.43;;;;;;;5.25;50.15;94311.25;5051927;28;20179;-75
2022/03/05 05:09:51;;;;;;;37.93;27.67;;;;;;;5.23;50.10;94313.19;5059063;28;20642;-75
2022/03/05 05:12:17;;;;;;;41.43;28.70;;;;;;;5.23;49.80;94309.78;5065069;28;20225;-75
2022/03/05 05:14:42;;;;;;;44.83;28.57;;;;;;;5.35;49.80;94315.41;5065443;28;20181;-74
2022/03/05 05:17:08;;;;;;;42.17;29.17;;;;;;;5.28;49.44;94310.91;5061143;28;20425;-75
2022/03/05 05:19:33;;;;;;;41.03;28.30;;;;;;;5.38;48.62;94315.06;5054770;28;20622;-75
2022/03/05 05:22:05;;;;;;;37.87;29.60;;;;;;;5.42;48.13;94314.56;5060409;28;20173;-75
2022/03/05 05:24:35;;;;;;;34.43;27.53;;;;;;;5.35;47.85;94321.41;5063553;28;20262;-76
2022/03/05 05:27:02;;;;;;;38.97;27.40;;;;;;;5.46;46.78;94333.19;5065153;28;20420;-76
2022/03/05 05:29:28;;;;;;;38.97;26.10;;;;;;;5.20;47.98;94341.28;5064637;28;20409;-75
2022/03/05 05:31:55;;;;;;;39.90;26.47;;;;;;;5.41;47.15;94340.69;5064940;28;20425;-75
2022/03/05 05:34:21;;;;;;;37.43;26.70;;;;;;;5.43;47.25;94346.50;5055820;28;20272;-75
2022/03/05 05:36:46;;;;;;;38.30;27.73;;;;;;;5.60;46.99;94353.22;5055167;28;20452;-75
2022/03/05 05:39:12;;;;;;;44.27;31.60;;;;;;;5.65;46.80;94355.31;5058073;28;20939;-75
2022/03/05 05:41:39;;;;;;;41.50;27.07;;;;;;;5.61;46.67;94357.44;5045056;28;20206;-75
2022/03/05 05:44:07;;;;;;;34.97;26.23;;;;;;;5.67;46.11;94361.13;5058583;28;20636;-75
2022/03/05 05:46:33;;;;;;;33.93;24.03;;;;;;;5.73;45.76;94351.84;5064634;28;20421;-75
2022/03/05 05:48:58;;;;;;;32.03;22.00;;;;;;;5.69;44.24;94353.97;5062964;28;20483;-76
2022/03/05 05:51:25;;;;;;;31.03;21.57;;;;;;;5.77;44.07;94358.34;5057860;28;20194;-75
2022/03/05 05:53:51;;;;;;;33.73;23.00;;;;;;;5.95;43.68;94353.69;5062851;28;20189;-75
2022/03/05 05:56:16;;;;;;;28.73;21.13;;;;;;;6.08;43.35;94352.31;5045824;28;20441;-75
2022/03/05 05:58:42;;;;;;;26.93;20.30;;;;;;;5.79;43.18;94358.97;5064304;28;20186;-75
2022/03/05 06:01:07;;;;;;;27.47;20.90;;;;;;;5.57;43.13;94361.34;5057712;28;20187;-75
2022/03/05 06:03:33;;;;;;;32.60;22.57;;;;;;;4.73;45.03;94373.19;5059078;28;20225;-74
2022/03/05 06:05:59;;;;;;;39.43;25.73;;;;;;;4.99;44.84;94384.13;5062787;28;20269;-76
2022/03/05 06:08:26;;;;;;;30.23;22.10;;;;;;;4.48;45.34;94381.78;5062855;28;20178;-75
2022/03/05 06:10:52;;;;;;;26.83;19.50;;;;;;;4.15;46.26;94380.16;5060362;28;20472;-75
2022/03/05 06:13:18;;;;;;;27.07;19.07;;;;;;;4.61;44.66;94381.28;5053587;28;20409;-74
2022/03/05 06:15:44;;;;;;;29.80;20.60;;;;;;;5.00;43.81;94390.91;5060810;28;20460;-75
2022/03/05 06:18:10;;;;;;;34.60;22.67;;;;;;;4.62;44.23;94384.69;5058185;28;20417;-75
2022/03/05 06:20:37;;;;;;;34.73;26.50;;;;;;;4.25;45.06;94392.00;5059066;28;20179;-75
2022/03/05 06:23:04;;;;;;;29.67;23.20;;;;;;;4.54;45.15;94395.06;5057518;28;20457;-75
2022/03/05 06:25:30;;;;;;;33.57;25.33;;;;;;;5.12;43.97;94393.97;5058949;28;20417;-75
2022/03/05 06:27:55;;;;;;;30.13;23.30;;;;;;;4.85;44.20;94393.38;5061678;28;20434;-74
2022/03/05 06:30:21;;;;;;;40.43;25.07;;;;;;;5.51;42.84;94398.38;5054541;28;20189;-75
2022/03/05 06:32:46;;;;;;;28.93;21.10;;;;;;;4.58;44.32;94397.16;5064215;28;20522;-75
2022/03/05 06:35:12;;;;;;;32.07;23.20;;;;;;;4.88;44.50;94395.66;5065772;28;20432;-75
2022/03/05 06:37:39;;;;;;;34.63;24.87;;;;;;;4.42;46.11;94395.41;5063253;28;20190;-75
2022/03/05 06:40:06;;;;;;;28.47;21.77;;;;;;;4.57;44.25;94385.19;5060434;28;20178;-74
2022/03/05 06:42:32;;;;;;;27.73;22.10;;;;;;;4.50;44.99;94392.00;5063382;28;20464;-75
2022/03/05 06:44:57;;;;;;;37.97;23.10;;;;;;;4.75;45.19;94392.75;5067054;28;20416;-75
2022/03/05 06:47:23;;;;;;;30.80;20.83;;;;;;;4.77;44.85;94395.19;5067366;28;20431;-75
2022/03/05 06:49:48;;;;;;;33.43;22.47;;;;;;;5.04;44.81;94396.59;5064666;28;20212;-74
2022/03/05 06:52:15;;;;;;;38.87;25.70;;;;;;;5.48;43.63;94409.06;5057240;28;20168;-74
2022/03/05 06:54:41;;;;;;;31.43;24.27;;;;;;;5.44;43.71;94407.78;5046664;28;20190;-74
2022/03/05 06:57:07;;;;;;;36.37;25.63;;;;;;;5.90;43.00;94400.13;5046853;28;20429;-76
2022/03/05 06:59:32;;;;;;;37.80;26.33;;;;;;;6.36;42.27;94397.56;5039770;28;20435;-74
2022/03/05 07:01:58;;;;;;;32.00;25.27;;;;;;;6.57;41.45;94403.91;5051825;28;20248;-75
2022/03/05 07:04:23;;;;;;;35.27;26.03;;;;;;;6.80;40.66;94393.44;5060570;28;20287;-75
2022/03/05 07:06:48;;;;;;;40.63;26.90;;;;;;;6.45;41.32;94390.53;5057450;28;20185;-74
2022/03/05 07:09:14;;;;;;;36.47;24.30;;;;;;;6.55;41.49;94391.06;5065640;28;20240;-75
2022/03/05 07:11:40;;;;;;;36.27;25.93;;;;;;;6.62;41.62;94385.97;5066301;28;20689;-75
2022/03/05 07:14:06;;;;;;;35.07;25.40;;;;;;;6.62;41.37;94386.78;5066133;28;20253;-75
2022/03/05 07:16:32;;;;;;;34.87;24.87;;;;;;;6.87;41.13;94383.13;5056273;28;20422;-75
2022/03/05 07:18:57;;;;;;;36.07;25.60;;;;;;;6.98;40.84;94377.50;5048319;28;20210;-74
2022/03/05 07:21:23;;;;;;;40.47;24.53;;;;;;;6.75;40.81;94375.75;5057329;28;20202;-75
2022/03/05 07:23:48;;;;;;;46.30;30.37;;;;;;;6.82;41.19;94371.47;5064330;28;20221;-75
2022/03/05 07:26:16;;;;;;;44.57;29.43;;;;;;;6.90;40.49;94380.19;5059348;28;20207;-74
2022/03/05 07:28:42;;;;;;;42.90;27.00;;;;;;;7.04;39.79;94379.41;5059489;28;20179;-74
2022/03/05 07:31:07;;;;;;;32.63;25.70;;;;;;;7.23;39.66;94373.66;5052896;28;20440;-74
2022/03/05 07:33:32;;;;;;;28.53;22.30;;;;;;;7.51;39.07;94378.22;5057826;28;20256;-74
2022/03/05 07:35:59;;;;;;;34.80;22.90;;;;;;;7.57;38.67;94374.88;5066921;28;20213;-75
2022/03/05 07:38:24;;;;;;;31.07;21.90;;;;;;;7.42;38.22;94366.28;5065618;28;20247;-75
2022/03/05 07:40:50;;;;;;;40.60;22.30;;;;;;;6.79;38.19;94363.22;5055645;28;20417;-75
2022/03/05 07:43:15;;;;;;;36.80;22.90;;;;;;;6.87;39.05;94367.53;5062142;28;20206;-75
2022/03/05 07:45:41;;;;;;;32.73;23.13;;;;;;;7.12;38.90;94370.69;5057826;28;20178;-74
2022/03/05 07:48:06;;;;;;;33.77;23.50;;;;;;;7.43;38.70;94367.88;5051935;28;20206;-75
2022/03/05 07:50:32;;;;;;;35.00;25.03;;;;;;;7.81;37.72;94370.31;5066365;28;20183;-74
2022/03/05 07:52:57;;;;;;;36.67;26.43;;;;;;;7.96;38.00;94367.69;5066178;28;20182;-75
2022/03/05 07:55:23;;;;;;;39.80;26.77;;;;;;;8.22;37.16;94361.94;5053155;28;20178;-75
2022/03/05 07:57:48;;;;;;;43.53;27.20;;;;;;;8.31;37.18;94366.03;5066566;28;20269;-75
2022/03/05 08:00:14;;;;;;;42.80;27.97;;;;;;;7.87;38.02;94374.78;5066250;28;20166;-74
2022/03/05 08:02:39;;;;;;;36.07;24.93;;;;;;;8.27;37.49;94370.00;5066058;28;20209;-75
2022/03/05 08:05:05;;;;;;;36.50;23.40;;;;;;;8.68;36.32;94371.97;5050809;28;20202;-75
2022/03/05 08:07:31;;;;;;;34.07;24.13;;;;;;;8.62;36.77;94370.13;5055430;28;20176;-75
2022/03/05 08:09:56;;;;;;;28.83;23.20;;;;;;;8.31;37.22;94375.63;5063093;28;20428;-76
2022/03/05 08:12:22;;;;;;;34.63;24.50;;;;;;;8.46;37.43;94368.59;5057547;28;20215;-77
2022/03/05 08:14:48;;;;;;;43.33;26.13;;;;;;;8.70;36.26;94369.97;5048346;28;20705;-77
2022/03/05 08:17:14;;;;;;;37.60;25.97;;;;;;;7.75;38.29;94371.06;5066077;28;20178;-77
2022/03/05 08:19:40;;;;;;;41.30;25.60;;;;;;;7.52;39.08;94373.81;5051151;28;20787;-77
2022/03/05 08:22:05;;;;;;;35.17;23.23;;;;;;;8.51;38.00;94371.44;5041919;28;20438;-77
2022/03/05 08:24:31;;;;;;;41.60;24.03;;;;;;;8.63;36.53;94376.13;5032474;28;20184;-77
2022/03/05 08:26:56;;;;;;;34.07;25.47;;;;;;;9.01;36.92;94374.00;5059579;28;20183;-77
2022/03/05 08:29:22;;;;;;;38.20;25.50;;;;;;;8.27;37.96;94374.38;5052460;28;20195;-77
2022/03/05 08:31:47;;;;;;;29.93;24.50;;;;;;;9.44;36.10;94380.88;5060668;28;20622;-77
2022/03/05 08:34:13;;;;;;;29.53;23.20;;;;;;;9.96;35.38;94377.66;5054430;28;20182;-77
2022/03/05 08:36:39;;;;;;;28.77;22.40;;;;;;;10.10;34.74;94369.84;5051563;28;20171;-77
2022/03/05 08:39:04;;;;;;;28.67;25.03;;;;;;;10.18;34.79;94372.25;5053377;28;20183;-77
2022/03/05 08:41:30;;;;;;;29.77;23.70;;;;;;;9.38;36.12;94378.03;5048794;28;20431;-77
2022/03/05 08:43:55;;;;;;;26.27;21.57;;;;;;;10.07;34.67;94376.28;5060183;28;20209;-77
2022/03/05 08:46:21;;;;;;;28.13;21.43;;;;;;;10.63;34.06;94375.16;5051020;28;20198;-77
2022/03/05 08:48:46;;;;;;;29.90;23.57;;;;;;;10.32;34.34;94373.13;5060126;28;20178;-78
2022/03/05 08:51:12;;;;;;;36.23;24.00;;;;;;;9.68;36.14;94369.13;5065110;28;20178;-78
2022/03/05 08:53:38;;;;;;;32.43;24.97;;;;;;;10.12;35.04;94373.06;5062850;28;20175;-77
2022/03/05 08:56:03;;;;;;;36.70;24.67;;;;;;;10.65;34.49;94372.34;5050229;28;20178;-77
2022/03/05 08:58:29;;;;;;;30.47;23.83;;;;;;;10.22;34.54;94376.09;5055599;28;20484;-77
2022/03/05 09:00:54;;;;;;;33.07;24.57;;;;;;;9.56;36.32;94374.91;5058375;28;20916;-77
2022/03/05 09:03:32;;;;;;;48.53;28.53;;;;;;;10.41;35.54;94371.13;5046516;28;20250;-77
2022/03/05 09:05:58;;;;;;;40.17;27.57;;;;;;;9.18;38.42;94372.72;5051038;28;20182;-77
2022/03/05 09:08:24;;;;;;;31.97;25.83;;;;;;;9.79;38.82;94379.00;5055545;28;20432;-77
2022/03/05 09:10:52;;;;;;;36.17;26.00;;;;;;;9.83;38.17;94376.81;5055818;28;20281;-77
2022/03/05 09:13:18;;;;;;;36.13;26.47;;;;;;;9.06;40.98;94374.22;5066446;28;20227;-76
2022/03/05 09:15:45;;;;;;;29.77;20.13;;;;;;;9.64;41.74;94371.31;5064075;28;20449;-77
2022/03/05 09:18:12;;;;;;;25.53;20.40;;;;;;;8.95;44.22;94364.31;5054239;28;20421;-77
2022/03/05 09:20:38;;;;;;;23.60;20.67;;;;;;;9.02;44.69;94365.19;5065171;28;20178;-77
2022/03/05 09:23:04;;;;;;;23.80;19.77;;;;;;;9.12;44.27;94370.03;5053311;28;21064;-76
2022/03/05 09:25:31;;;;;;;25.67;21.00;;;;;;;9.64;43.69;94363.47;5065501;28;20504;-77
2022/03/05 09:27:57;;;;;;;24.30;19.90;;;;;;;9.53;43.58;94370.06;5052654;28;20417;-77
2022/03/05 09:30:22;;;;;;;26.47;21.30;;;;;;;9.42;44.43;94370.59;5066141;28;20477;-78
2022/03/05 09:32:51;;;;;;;26.57;19.90;;;;;;;9.96;43.20;94369.81;5060020;28;20229;-77
2022/03/05 09:35:18;;;;;;;27.63;20.70;;;;;;;10.45;42.18;94367.94;5058359;28;20686;-77
2022/03/05 09:37:43;;;;;;;20.83;18.63;;;;;;;10.01;42.76;94365.81;5059707;28;20429;-77
2022/03/05 09:40:10;;;;;;;22.00;19.30;;;;;;;10.25;42.99;94360.00;5045876;28;20413;-77
2022/03/05 09:42:40;;;;;;;28.13;16.40;;;;;;;9.56;44.18;94354.00;5057780;28;20278;-78
2022/03/05 09:45:06;;;;;;;20.33;15.70;;;;;;;10.03;42.89;94350.72;5034409;28;20446;-76
2022/03/05 09:47:36;;;;;;;27.10;19.53;;;;;;;10.04;42.94;94355.75;5041363;28;20449;-78
2022/03/05 09:50:05;;;;;;;20.43;17.60;;;;;;;9.89;42.45;94349.91;5055122;28;20425;-77
2022/03/05 09:52:31;;;;;;;20.70;16.30;;;;;;;10.70;40.91;94349.81;5043448;28;20434;-77
2022/03/05 09:54:56;;;;;;;20.80;17.90;;;;;;;9.94;43.13;94350.91;5044560;28;20430;-77
2022/03/05 09:57:22;;;;;;;24.40;14.93;;;;;;;10.12;41.68;94352.94;5051341;28;20187;-77
2022/03/05 09:59:47;;;;;;;20.13;16.37;;;;;;;10.40;41.97;94346.78;5058947;28;20174;-77
2022/03/05 10:02:13;;;;;;;22.20;16.80;;;;;;;10.39;42.12;94347.78;5054108;28;20175;-78
2022/03/05 10:04:40;;;;;;;31.30;18.10;;;;;;;10.98;41.04;94345.34;5054094;28;20202;-77
2022/03/05 10:07:20;;;;;;;23.00;17.27;;;;;;;11.04;40.68;94336.66;5050966;28;20479;-77
2022/03/05 10:09:47;;;;;;;20.80;16.10;;;;;;;11.41;39.82;94345.63;5056962;28;20417;-78
2022/03/05 10:12:34;;;;;;;28.93;19.47;;;;;;;11.38;40.14;94346.03;5051551;28;20484;-77
2022/03/05 10:15:17;;;;;;;18.87;16.70;;;;;;;11.20;40.62;94338.84;5068957;28;20860;-77
2022/03/05 10:18:00;;;;;;;23.87;18.10;;;;;;;10.69;41.15;94342.94;5061550;28;20425;-76
2022/03/05 10:20:31;;;;;;;26.20;18.83;;;;;;;10.12;43.13;94344.31;5056308;28;21031;-78
2022/03/05 10:23:00;;;;;;;22.73;16.23;;;;;;;10.33;42.55;94341.53;5054083;28;20506;-77
2022/03/05 10:25:47;;;;;;;21.63;17.13;;;;;;;10.31;42.38;94356.63;5051337;28;20418;-77
2022/03/05 10:28:17;;;;;;;25.20;17.50;;;;;;;9.92;42.85;94347.69;5053668;28;20479;-76
2022/03/05 10:30:52;;;;;;;19.73;16.30;;;;;;;10.13;42.92;94351.13;5053184;28;20438;-75
2022/03/05 10:33:41;;;;;;;25.33;16.93;;;;;;;9.97;42.81;94347.88;5049869;28;20413;-76
2022/03/05 10:36:17;;;;;;;24.33;18.20;;;;;;;10.28;42.80;94341.31;5055927;28;20457;-75
2022/03/05 10:38:50;;;;;;;24.13;20.50;;;;;;;10.14;42.96;94342.31;5052254;28;20408;-75
2022/03/05 10:41:18;;;;;;;24.97;20.60;;;;;;;10.11;43.65;94340.06;5057862;28;20451;-75
2022/03/05 10:43:47;;;;;;;23.27;18.60;;;;;;;10.55;42.78;94341.38;5045155;28;20489;-77
2022/03/05 10:46:13;;;;;;;25.23;21.27;;;;;;;9.99;43.49;94331.22;5049192;28;20457;-76
2022/03/05 10:48:42;;;;;;;25.33;20.30;;;;;;;10.03;43.74;94335.84;5036530;28;20422;-77
2022/03/05 10:51:17;;;;;;;22.83;19.00;;;;;;;9.93;44.62;94338.03;5050165;28;20470;-76
2022/03/05 10:53:48;;;;;;;26.77;18.37;;;;;;;10.24;44.17;94332.25;5052676;28;20436;-77
2022/03/05 10:56:36;;;;;;;23.67;18.10;;;;;;;9.21;46.44;94324.50;5057512;28;20448;-75
2022/03/05 10:59:09;;;;;;;21.17;16.93;;;;;;;9.25;46.33;94332.78;5046130;28;20990;-77
2022/03/05 11:01:41;;;;;;;22.50;18.80;;;;;;;9.45;45.48;94331.06;5051735;28;20514;-75
2022/03/05 11:04:08;;;;;;;28.30;20.37;;;;;;;9.01;47.70;94326.22;5053331;28;20513;-75
2022/03/05 11:06:37;;;;;;;25.50;18.60;;;;;;;9.55;46.21;94323.66;5047784;28;20449;-76
2022/03/05 11:09:03;;;;;;;23.60;18.67;;;;;;;9.41;46.22;94327.22;5055473;28;20411;-75
2022/03/05 11:11:31;;;;;;;25.50;15.77;;;;;;;9.11;47.77;94327.47;5046500;28;20466;-76
2022/03/05 11:13:56;;;;;;;24.50;20.23;;;;;;;9.99;46.82;94320.75;5055741;28;20453;-77
2022/03/05 11:16:22;;;;;;;28.20;19.80;;;;;;;9.68;47.21;94311.66;5054352;28;20425;-77
2022/03/05 11:18:48;;;;;;;28.93;19.43;;;;;;;9.75;46.76;94310.66;5050201;28;20207;-77
2022/03/05 11:21:13;;;;;;;23.07;20.23;;;;;;;9.85;47.15;94315.50;5052167;28;20433;-77